Aeroporto :
LOGIN :

Iscrizione | Disclaimer

   EN    FR    IT 

 










Sommario :    VFR   VFR Marginale   IFR   IFR Intensivo   IFR Molto Intensivo
Visibilità : 
Base nubi : 
>= 8 km
>= 3000ft
5 / 8 km
1000 / 3000 ft
1500m / 5 km
500 / 1000 ft
800 / 1500m
200 / 500 ft
< 800m
< 200 ft
Simboli :   Temporali  Nebbia  Neve Forte  Precipitazioni Forti  Vento > 20 kt
SIGMETs :   Varie  Temporali  Ghiacco  Turbolenza  Onda orograficha  Ceneri Vulcaniche






- Altitudine del aeroporto : 1504 ft
- Codice IATA : PNA


LEPP - Noain Pamplona

ULTIMO METAR :
  • 271200Z 31014G26KT 270V350 9999 SCT025 BKN050 17/10 Q1017

METARs OBSOLETI :
  • 271130Z 31015KT 280V340 9999 SCT030 SCT055 18/10 Q1017
  • 271100Z 34012KT 290V010 9999 SCT023 SCT030 BKN055 17/11 Q1017
  • 271030Z 33013KT 290V010 9999 SCT025 BKN045 16/11 Q1017
  • 271000Z 32011KT 290V010 9999 FEW023 BKN030 16/11 Q1017
  • 270930Z 31009KT 280V350 9999 FEW023 BKN030 15/10 Q1016

TAF TAF LEPP
Valido dal 27 a 09 ore il 28 a 09 ore UTC


270800Z 2709/2809 32009KT 9999 FEW015 BKN025 TX16/2713Z TN11/2805Z
PROB30
TEMPO 2709/2718 3000 RA BKN010
PROB40
TEMPO 2710/2715 33015G25KT
PROB40
TEMPO 2718/2724 BKN010
PROB40
TEMPO 2800/2809 3000 RA BKN010



MetMap, La meteo Aeronautica in un colpo d'occhio ! - Copyright ORBIFLY Dicembre 2007 - Disclaimer

ORBIFLY MET'MAP TEAM :

Programmazione e sviluppo : Alexandra Zaïnal
Concezione : Baudouin d'Aumeries
Supporto tecnico e logistico : Manuel Goepfert
Aiuto : Marc-Olivier Méhu
Aiuto per la traduzione : Arnaldo La Scala




FONTI E CREDITI :

   NOAA